Time;durP1;ratioP1;P1;durP2;ratioP2;P2;SDS_P1;SDS_P2;PMS_P1;PMS_P2;Temp;Humidity;BMP_temperature;BMP_pressure;BME280_temperature;BME280_humidity;BME280_pressure;Samples;Min_cycle;Max_cycle;Signal;HPM_P1;HPM_P2
2022/09/29 00:02:44;;;;;;;5.60;3.75;;;;;;;10.14;100.00;97287.50;2031041;85;21576;-84
2022/09/29 00:05:45;;;;;;;4.00;3.70;;;;;;;10.11;100.00;97293.97;2032834;87;21060;-85
2022/09/29 00:08:46;;;;;;;4.22;3.83;;;;;;;10.09;100.00;97292.07;2010282;86;21567;-84
2022/09/29 00:11:46;;;;;;;3.52;3.20;;;;;;;10.06;100.00;97289.89;2019946;87;21713;-84
2022/09/29 00:14:47;;;;;;;3.90;3.47;;;;;;;10.05;100.00;97277.80;2029835;87;21064;-84
2022/09/29 00:17:48;;;;;;;5.70;3.50;;;;;;;10.04;100.00;97278.81;1998456;87;21128;-85
2022/09/29 00:20:48;;;;;;;3.40;3.10;;;;;;;10.05;100.00;97275.69;2007770;87;21020;-84
2022/09/29 00:23:49;;;;;;;3.60;3.30;;;;;;;10.01;100.00;97286.29;1988694;87;21049;-83
2022/09/29 00:26:50;;;;;;;3.90;3.40;;;;;;;9.96;100.00;97292.93;2133283;81;21469;-84
2022/09/29 00:29:50;;;;;;;5.80;4.03;;;;;;;9.96;100.00;97291.62;2138136;81;21536;-83
2022/09/29 00:32:51;;;;;;;4.37;3.98;;;;;;;9.95;100.00;97291.33;2108465;83;21544;-84
2022/09/29 00:35:52;;;;;;;3.75;3.45;;;;;;;9.95;100.00;97309.63;2137054;82;21013;-83
2022/09/29 00:38:53;;;;;;;4.60;3.87;;;;;;;9.97;100.00;97318.60;2104725;83;21044;-83
2022/09/29 00:41:53;;;;;;;3.52;3.25;;;;;;;9.95;100.00;97324.02;2094266;82;21010;-84
2022/09/29 00:44:54;;;;;;;3.87;3.58;;;;;;;9.97;100.00;97322.02;2111613;83;21005;-84
2022/09/29 00:47:55;;;;;;;5.40;3.92;;;;;;;9.96;100.00;97330.05;2084078;84;21228;-84
2022/09/29 00:50:55;;;;;;;4.60;4.20;;;;;;;9.94;100.00;97328.15;2126134;82;21046;-84
2022/09/29 00:53:56;;;;;;;8.28;4.12;;;;;;;9.91;100.00;97328.58;2144031;82;22234;-86
2022/09/29 00:56:57;;;;;;;4.85;4.35;;;;;;;9.89;100.00;97323.56;2149698;82;21002;-84
2022/09/29 00:59:58;;;;;;;7.03;5.28;;;;;;;9.84;100.00;97318.65;2101530;83;21564;-83
2022/09/29 01:02:58;;;;;;;6.42;5.00;;;;;;;9.82;100.00;97309.71;2109567;83;21332;-84
2022/09/29 01:05:59;;;;;;;5.40;4.78;;;;;;;9.84;100.00;97305.07;2150489;82;21100;-84
2022/09/29 01:09:00;;;;;;;5.62;4.90;;;;;;;9.84;100.00;97308.99;2140391;82;20994;-85
2022/09/29 01:12:01;;;;;;;7.53;4.95;;;;;;;9.86;100.00;97312.20;2146223;82;21001;-85
2022/09/29 01:15:02;;;;;;;7.67;5.25;;;;;;;9.85;100.00;97310.59;2095903;83;21112;-85
2022/09/29 01:18:02;;;;;;;6.20;4.62;;;;;;;9.84;100.00;97313.42;2111014;83;21022;-82
2022/09/29 01:21:03;;;;;;;6.50;4.58;;;;;;;9.87;100.00;97319.02;2187389;80;21016;-84
2022/09/29 01:24:04;;;;;;;5.05;4.60;;;;;;;9.89;100.00;97323.56;2197329;80;20993;-84
2022/09/29 01:27:04;;;;;;;5.37;4.42;;;;;;;9.85;100.00;97326.78;2212172;80;21013;-85
2022/09/29 01:30:05;;;;;;;5.78;5.05;;;;;;;9.89;100.00;97349.70;2183801;80;21519;-84
2022/09/29 01:33:06;;;;;;;5.45;4.92;;;;;;;9.90;100.00;97338.74;2188934;80;21421;-84
2022/09/29 01:36:07;;;;;;;5.62;5.15;;;;;;;9.86;100.00;97347.48;2180621;80;21025;-85
2022/09/29 01:39:07;;;;;;;7.70;5.00;;;;;;;9.84;100.00;97358.66;2181069;80;20969;-84
2022/09/29 01:42:08;;;;;;;6.10;4.30;;;;;;;9.86;100.00;97363.68;2185589;80;20996;-83
2022/09/29 01:45:11;;;;;;;5.12;4.62;;;;;;;9.81;100.00;97367.44;2186084;80;21101;-84
2022/09/29 01:48:12;;;;;;;6.50;5.10;;;;;;;9.80;100.00;97367.14;2180430;80;21460;-85
2022/09/29 01:51:12;;;;;;;7.10;4.90;;;;;;;9.81;100.00;97363.52;2198119;80;21352;-85
2022/09/29 01:54:13;;;;;;;8.25;5.08;;;;;;;9.84;100.00;97365.70;2181300;80;20997;-84
2022/09/29 01:57:16;;;;;;;5.95;5.33;;;;;;;9.84;100.00;97359.17;2186918;80;20973;-85
2022/09/29 02:00:16;;;;;;;6.78;6.10;;;;;;;9.84;100.00;97364.40;2185759;80;21053;-84
2022/09/29 02:03:17;;;;;;;7.97;5.90;;;;;;;9.84;100.00;97361.78;2183916;80;21027;-84
2022/09/29 02:06:17;;;;;;;6.25;5.22;;;;;;;9.79;100.00;97357.70;2196478;80;21025;-84
2022/09/29 02:09:19;;;;;;;6.95;5.17;;;;;;;9.76;100.00;97354.97;2194297;80;21131;-84
2022/09/29 02:12:21;;;;;;;6.00;5.28;;;;;;;9.73;100.00;97355.39;2198115;80;21013;-84
2022/09/29 02:15:22;;;;;;;6.70;5.40;;;;;;;9.68;100.00;97359.92;2192952;80;21541;-84
2022/09/29 02:18:23;;;;;;;8.28;5.47;;;;;;;9.68;100.00;97371.68;2124439;82;21066;-84
2022/09/29 02:21:24;;;;;;;5.95;5.35;;;;;;;9.64;100.00;97378.84;2113963;83;21021;-84
2022/09/29 02:24:24;;;;;;;5.30;4.87;;;;;;;9.66;100.00;97386.77;2116644;83;21001;-84
2022/09/29 02:27:25;;;;;;;7.60;5.95;;;;;;;9.64;100.00;97383.56;2111794;83;21010;-83
2022/09/29 02:30:26;;;;;;;7.00;5.30;;;;;;;9.63;100.00;97391.11;2122984;82;21001;-84
2022/09/29 02:33:26;;;;;;;6.20;5.50;;;;;;;9.62;100.00;97386.90;2119992;82;21067;-84
2022/09/29 02:36:27;;;;;;;6.17;5.58;;;;;;;9.61;100.00;97389.72;2124013;83;21096;-84
2022/09/29 02:39:28;;;;;;;6.62;6.03;;;;;;;9.60;100.00;97392.01;2079839;83;21104;-85
2022/09/29 02:42:29;;;;;;;6.92;6.00;;;;;;;9.62;100.00;97390.02;2176966;80;21271;-84
2022/09/29 02:45:29;;;;;;;7.15;4.87;;;;;;;9.63;100.00;97387.19;2189183;80;21029;-84
2022/09/29 02:48:30;;;;;;;7.95;5.75;;;;;;;9.65;100.00;97386.98;2190207;80;21482;-85
2022/09/29 02:51:31;;;;;;;7.37;5.92;;;;;;;9.66;100.00;97382.05;2136287;82;21047;-84
2022/09/29 02:54:32;;;;;;;6.75;5.90;;;;;;;9.67;100.00;97378.42;2138192;82;21116;-84
2022/09/29 02:57:32;;;;;;;6.35;5.75;;;;;;;9.64;100.00;97383.56;2137744;82;21029;-84
2022/09/29 03:00:33;;;;;;;8.13;5.70;;;;;;;9.64;100.00;97390.10;2115245;83;21092;-85
2022/09/29 03:03:34;;;;;;;6.40;5.50;;;;;;;9.56;100.00;97391.63;2126473;83;21002;-85
2022/09/29 03:06:35;;;;;;;7.37;6.08;;;;;;;9.54;100.00;97391.03;2114149;83;21137;-85
2022/09/29 03:09:35;;;;;;;7.12;6.37;;;;;;;9.53;100.00;97393.86;2118302;83;21544;-84
2022/09/29 03:12:36;;;;;;;6.15;5.60;;;;;;;9.52;100.00;97395.67;2099619;83;20942;-85
2022/09/29 03:15:37;;;;;;;9.48;5.90;;;;;;;9.54;100.00;97396.27;2135472;82;21036;-83
2022/09/29 03:18:37;;;;;;;9.15;6.92;;;;;;;9.53;100.00;97395.16;2137391;82;21001;-84
2022/09/29 03:21:38;;;;;;;7.62;6.28;;;;;;;9.53;100.00;97395.16;2132426;82;21516;-85
2022/09/29 03:24:40;;;;;;;12.18;6.58;;;;;;;9.55;100.00;97398.38;2118348;82;21527;-84
2022/09/29 03:27:41;;;;;;;7.35;6.53;;;;;;;9.54;100.00;97396.27;2134521;82;21111;-84
2022/09/29 03:30:41;;;;;;;8.80;7.05;;;;;;;9.50;100.00;97405.50;2107577;83;20989;-84
2022/09/29 03:33:42;;;;;;;8.53;6.90;;;;;;;9.53;100.00;97397.27;2117791;83;21045;-85
2022/09/29 03:36:43;;;;;;;8.15;6.65;;;;;;;9.54;100.00;97399.38;2131470;82;21013;-84
2022/09/29 03:39:44;;;;;;;8.70;7.80;;;;;;;9.50;100.00;97391.63;2189513;80;20962;-84
2022/09/29 03:42:44;;;;;;;12.40;7.47;;;;;;;9.43;100.00;97395.59;2196513;80;21527;-85
2022/09/29 03:45:45;;;;;;;8.50;6.92;;;;;;;9.43;100.00;97397.40;2184379;80;21051;-84
2022/09/29 03:48:46;;;;;;;7.42;6.72;;;;;;;9.47;100.00;97402.50;2177599;81;20960;-85
2022/09/29 03:51:47;;;;;;;7.00;6.40;;;;;;;9.47;100.00;97405.92;2186366;80;21040;-85
2022/09/29 03:54:47;;;;;;;8.55;7.10;;;;;;;9.45;100.00;97404.02;2190363;80;21559;-84
2022/09/29 03:57:48;;;;;;;7.53;6.80;;;;;;;9.45;100.00;97404.02;2192326;80;21081;-85
2022/09/29 04:00:49;;;;;;;11.33;6.97;;;;;;;9.41;100.00;97390.55;2194225;80;21009;-84
2022/09/29 04:03:49;;;;;;;8.23;6.67;;;;;;;9.40;100.00;97389.45;2194134;80;21009;-85
2022/09/29 04:06:50;;;;;;;7.45;6.72;;;;;;;9.40;100.00;97381.09;2190522;80;21049;-85
2022/09/29 04:09:51;;;;;;;9.08;7.47;;;;;;;9.44;100.00;97382.02;2127349;82;21005;-85
2022/09/29 04:12:51;;;;;;;7.35;6.62;;;;;;;9.46;100.00;97385.22;2100578;83;21020;-84
2022/09/29 04:15:52;;;;;;;7.83;6.92;;;;;;;9.47;100.00;97378.98;2201530;80;20982;-85
2022/09/29 04:18:53;;;;;;;9.50;7.05;;;;;;;9.43;100.00;97384.34;2191259;80;21024;-85
2022/09/29 04:21:53;;;;;;;10.20;7.10;;;;;;;9.40;100.00;97391.55;2201794;80;21018;-84
2022/09/29 04:24:54;;;;;;;9.38;7.20;;;;;;;9.45;100.00;97402.71;2195791;80;21021;-85
2022/09/29 04:27:55;;;;;;;9.50;7.60;;;;;;;9.46;100.00;97422.61;2178524;80;21063;-84
2022/09/29 04:30:56;;;;;;;8.40;7.50;;;;;;;9.48;100.00;97429.73;2192536;80;20945;-84
2022/09/29 04:33:56;;;;;;;12.82;9.55;;;;;;;9.50;100.00;97426.41;2193246;80;20970;-84
2022/09/29 04:36:57;;;;;;;16.57;9.38;;;;;;;9.49;100.00;97418.77;2187360;80;21029;-84
2022/09/29 04:39:58;;;;;;;10.20;8.33;;;;;;;9.49;100.00;97422.69;2192431;80;21064;-85
2022/09/29 04:42:58;;;;;;;11.38;9.03;;;;;;;9.48;100.00;97423.70;2183393;80;21588;-85
2022/09/29 04:45:59;;;;;;;11.15;8.45;;;;;;;9.44;100.00;97427.74;2176983;80;21515;-87
2022/09/29 04:49:00;;;;;;;9.20;7.80;;;;;;;9.44;100.00;97435.58;2163376;80;20977;-87
2022/09/29 04:52:00;;;;;;;7.87;7.17;;;;;;;9.43;100.00;97437.89;2190234;80;21414;-84
2022/09/29 04:55:01;;;;;;;7.28;6.55;;;;;;;9.41;100.00;97435.45;2180645;80;21108;-85
2022/09/29 04:58:02;;;;;;;7.35;6.65;;;;;;;9.44;100.00;97435.58;2188443;80;21000;-82
2022/09/29 05:01:03;;;;;;;9.05;6.53;;;;;;;9.39;100.00;97442.20;2170196;80;21630;-83
2022/09/29 05:04:03;;;;;;;8.95;7.65;;;;;;;9.37;100.00;97447.33;2170324;80;21054;-84
2022/09/29 05:07:04;;;;;;;12.65;8.03;;;;;;;9.34;100.00;97444.62;2167992;81;21632;-86
2022/09/29 05:10:04;;;;;;;8.15;6.42;;;;;;;9.32;100.00;97447.92;2164175;81;21072;-84
2022/09/29 05:13:05;;;;;;;9.35;6.25;;;;;;;9.33;100.00;97457.39;2181135;80;21559;-84
2022/09/29 05:16:06;;;;;;;8.93;7.20;;;;;;;9.33;100.00;97458.70;2165884;80;20981;-84
2022/09/29 05:19:08;;;;;;;10.08;6.42;;;;;;;9.30;100.00;97460.39;2175932;80;21607;-84
2022/09/29 05:22:09;;;;;;;9.00;7.53;;;;;;;9.38;100.00;97464.11;2183117;80;21079;-84
2022/09/29 05:25:09;;;;;;;7.50;6.80;;;;;;;9.42;100.00;97459.30;2172602;80;21074;-84
2022/09/29 05:28:13;;;;;;;7.55;6.75;;;;;;;9.49;100.00;97459.27;2104573;83;21037;-85
2022/09/29 05:31:14;;;;;;;8.08;7.30;;;;;;;9.54;100.00;97464.70;2107978;84;21111;-86
2022/09/29 05:34:15;;;;;;;11.33;6.33;;;;;;;9.59;100.00;97461.77;2099687;84;21108;-90
2022/09/29 05:37:17;;;;;;;8.40;6.40;;;;;;;9.58;100.00;97465.39;2102315;83;21063;-86
2022/09/29 05:40:18;;;;;;;7.92;6.62;;;;;;;9.66;100.00;97470.91;2108289;83;21083;-86
2022/09/29 05:43:19;;;;;;;8.65;6.40;;;;;;;9.68;100.00;97465.77;2103487;83;21602;-86
2022/09/29 05:46:20;;;;;;;14.00;6.87;;;;;;;9.74;100.00;97472.52;2101799;84;20993;-86
2022/09/29 05:49:20;;;;;;;6.97;6.25;;;;;;;9.77;100.00;97478.63;2096545;84;21088;-88
2022/09/29 05:52:21;;;;;;;10.58;7.25;;;;;;;9.79;100.00;97477.95;2108214;83;21024;-86
2022/09/29 05:55:23;;;;;;;7.45;6.00;;;;;;;9.81;100.00;97475.92;2102637;84;21499;-85
2022/09/29 05:58:26;;;;;;;7.30;6.60;;;;;;;9.84;100.00;97479.42;2097782;84;21603;-86
2022/09/29 06:01:26;;;;;;;7.75;6.00;;;;;;;9.86;100.00;97484.74;2105287;83;21169;-87
2022/09/29 06:04:26;;;;;;;6.03;5.40;;;;;;;9.90;100.00;97483.34;2094806;83;21128;-85
2022/09/29 06:07:27;;;;;;;10.93;9.88;;;;;;;9.96;100.00;97483.01;2096257;84;21084;-85
2022/09/29 06:10:28;;;;;;;8.63;6.60;;;;;;;10.01;100.00;97481.91;2100716;83;21127;-85
2022/09/29 06:13:29;;;;;;;8.20;6.78;;;;;;;10.11;100.00;97482.78;2100691;84;21088;-85
2022/09/29 06:16:29;;;;;;;11.60;10.53;;;;;;;10.18;100.00;97490.91;2099219;83;21052;-85
2022/09/29 06:19:30;;;;;;;16.77;12.33;;;;;;;10.21;100.00;97483.95;2108330;82;21524;-85
2022/09/29 06:22:31;;;;;;;9.30;7.95;;;;;;;10.25;100.00;97493.55;2105600;83;21123;-85
2022/09/29 06:25:32;;;;;;;9.28;7.50;;;;;;;10.32;100.00;97490.38;2146839;80;21092;-86
2022/09/29 06:28:32;;;;;;;5.65;5.12;;;;;;;10.38;100.00;97487.44;2178061;81;22221;-89
2022/09/29 06:31:33;;;;;;;7.55;6.72;;;;;;;10.40;100.00;97495.88;2179334;80;21056;-88
2022/09/29 06:34:34;;;;;;;8.60;6.35;;;;;;;10.35;100.00;97495.72;2173379;81;21029;-88
2022/09/29 06:37:34;;;;;;;6.72;5.55;;;;;;;10.33;100.00;97500.33;2165726;80;21249;-88
2022/09/29 06:40:35;;;;;;;5.83;5.05;;;;;;;10.32;100.00;97490.88;2139237;82;20998;-89
2022/09/29 06:43:36;;;;;;;7.83;5.30;;;;;;;10.32;100.00;97494.30;2163932;80;21067;-89
2022/09/29 06:46:37;;;;;;;8.05;5.53;;;;;;;10.31;100.00;97494.00;2179413;80;21045;-86
2022/09/29 06:49:37;;;;;;;8.05;5.75;;;;;;;10.32;100.00;97487.76;2179074;81;21606;-85
2022/09/29 06:52:38;;;;;;;6.03;5.42;;;;;;;10.41;100.00;97491.74;2171028;80;21014;-88
2022/09/29 06:55:39;;;;;;;7.62;5.55;;;;;;;10.48;100.00;97482.56;2183480;80;21116;-87
2022/09/29 06:58:39;;;;;;;6.58;5.92;;;;;;;10.57;100.00;97488.36;2170325;80;21498;-83
2022/09/29 07:01:40;;;;;;;6.15;5.62;;;;;;;10.57;100.00;97491.78;2166610;81;22132;-84
2022/09/29 07:04:41;;;;;;;6.72;6.08;;;;;;;10.57;100.00;97496.22;2178865;80;21021;-84
2022/09/29 07:07:42;;;;;;;7.35;5.55;;;;;;;10.60;100.00;97498.41;2178188;80;21003;-84
2022/09/29 07:10:43;;;;;;;7.85;6.12;;;;;;;10.58;100.00;97501.75;2171607;80;21552;-84
2022/09/29 07:13:44;;;;;;;8.93;6.22;;;;;;;10.49;100.00;97507.21;2174534;80;21497;-84
2022/09/29 07:16:47;;;;;;;5.75;5.22;;;;;;;10.48;100.00;97520.51;2167115;81;21608;-84
2022/09/29 07:19:47;;;;;;;6.17;5.25;;;;;;;10.46;100.00;97523.34;2169207;80;21556;-84
2022/09/29 07:22:48;;;;;;;8.88;5.70;;;;;;;10.45;100.00;97525.66;2165533;80;20993;-85
2022/09/29 07:25:50;;;;;;;5.33;4.78;;;;;;;10.47;100.00;97522.83;2167605;80;21052;-83
2022/09/29 07:28:51;;;;;;;6.58;5.95;;;;;;;10.48;100.00;97519.20;2171048;80;21611;-84
2022/09/29 07:31:54;;;;;;;7.05;6.03;;;;;;;10.55;100.00;97517.37;2174306;80;21044;-84
2022/09/29 07:34:56;;;;;;;6.28;5.75;;;;;;;10.56;100.00;97507.70;2125978;82;21074;-84
2022/09/29 07:37:57;;;;;;;7.40;6.22;;;;;;;10.64;100.00;97506.95;2142298;83;21049;-85
2022/09/29 07:40:58;;;;;;;6.58;5.62;;;;;;;10.69;100.00;97505.00;2140872;82;21070;-90
2022/09/29 07:43:59;;;;;;;9.93;5.85;;;;;;;10.76;100.00;97520.19;2145010;82;21586;-84
2022/09/29 07:47:00;;;;;;;6.17;5.65;;;;;;;10.75;100.00;97530.36;2145213;83;20963;-85
2022/09/29 07:50:00;;;;;;;7.62;5.50;;;;;;;10.77;100.00;97529.64;2140630;82;20969;-85
2022/09/29 07:53:01;;;;;;;10.93;6.35;;;;;;;10.78;100.00;97529.93;2141471;82;21072;-86
2022/09/29 07:56:02;;;;;;;7.20;6.05;;;;;;;10.89;100.00;97535.04;2140246;82;20987;-87
2022/09/29 07:59:03;;;;;;;7.95;6.50;;;;;;;10.87;100.00;97536.53;2141677;82;21039;-84
2022/09/29 08:02:04;;;;;;;8.33;6.28;;;;;;;11.06;100.00;97550.05;2138327;82;21082;-87
2022/09/29 08:05:05;;;;;;;6.42;5.85;;;;;;;11.20;100.00;97544.20;2099403;83;21065;-86
2022/09/29 08:08:06;;;;;;;7.97;6.40;;;;;;;11.39;100.00;97537.22;2129286;82;21501;-85
2022/09/29 08:11:07;;;;;;;9.70;6.37;;;;;;;11.56;100.00;97544.86;2133201;83;21080;-86
2022/09/29 08:14:07;;;;;;;6.92;6.20;;;;;;;11.79;100.00;97554.73;2132656;82;21843;-85
2022/09/29 08:17:08;;;;;;;6.50;5.90;;;;;;;12.02;100.00;97556.00;2132324;83;21029;-86
2022/09/29 08:20:09;;;;;;;6.15;5.00;;;;;;;12.20;100.00;97556.81;2129770;83;21056;-86
2022/09/29 08:23:09;;;;;;;5.72;5.22;;;;;;;12.24;100.00;97559.28;2120327;82;21032;-86
2022/09/29 08:26:10;;;;;;;6.72;6.10;;;;;;;12.15;100.00;97557.16;2136192;83;21005;-85
2022/09/29 08:29:11;;;;;;;5.97;5.42;;;;;;;12.12;100.00;97560.23;2127132;83;21056;-86
2022/09/29 08:32:12;;;;;;;5.28;4.87;;;;;;;12.23;100.00;97563.45;2140595;82;21011;-84
2022/09/29 08:35:13;;;;;;;6.80;5.75;;;;;;;12.31;100.00;97564.98;2140905;82;21490;-84
2022/09/29 08:38:14;;;;;;;5.62;5.12;;;;;;;12.33;100.00;97571.61;2140324;82;21012;-85
2022/09/29 08:41:14;;;;;;;4.45;4.08;;;;;;;12.44;100.00;97572.73;2126294;83;21063;-83
2022/09/29 08:44:15;;;;;;;5.80;5.25;;;;;;;12.47;100.00;97570.47;2105459;82;21049;-85
2022/09/29 08:47:16;;;;;;;5.08;4.67;;;;;;;12.47;100.00;97573.60;2112184;82;21054;-86
2022/09/29 08:50:17;;;;;;;10.05;7.08;;;;;;;12.57;100.00;97575.72;2095446;83;21166;-84
2022/09/29 08:53:19;;;;;;;5.97;5.47;;;;;;;12.57;100.00;97580.45;2119392;82;21013;-86
2022/09/29 08:56:20;;;;;;;6.17;5.62;;;;;;;12.59;100.00;97576.29;2076355;83;21029;-86
2022/09/29 08:59:24;;;;;;;6.92;5.65;;;;;;;12.57;100.00;97583.08;2127849;82;21032;-84
2022/09/29 09:02:23;;;;;;;6.05;5.50;;;;;;;12.64;100.00;97591.69;2128897;82;21672;-85
2022/09/29 09:05:23;;;;;;;6.53;5.87;;;;;;;12.69;100.00;97591.02;2121502;81;20986;-86
2022/09/29 09:08:24;;;;;;;4.37;3.83;;;;;;;12.75;100.00;97595.41;2123599;83;21501;-85
2022/09/29 09:11:26;;;;;;;5.83;5.20;;;;;;;12.77;100.00;97595.46;2133035;81;21584;-85
2022/09/29 09:14:26;;;;;;;5.87;4.87;;;;;;;12.90;100.00;97594.52;2129428;82;21062;-85
2022/09/29 09:17:27;;;;;;;5.37;4.15;;;;;;;13.02;100.00;97595.36;2122277;82;21009;-85
2022/09/29 09:20:28;;;;;;;6.42;4.65;;;;;;;13.06;100.00;97595.20;2125720;83;21092;-85
2022/09/29 09:23:28;;;;;;;4.85;4.25;;;;;;;13.06;100.00;97601.77;2126713;82;21029;-85
2022/09/29 09:26:29;;;;;;;5.25;3.58;;;;;;;13.12;100.00;97600.09;2133503;83;21116;-85
2022/09/29 09:29:30;;;;;;;4.58;3.77;;;;;;;13.21;100.00;97610.61;2121909;82;21030;-84
2022/09/29 09:32:31;;;;;;;3.65;3.35;;;;;;;13.16;100.00;97611.75;2133378;82;21050;-84
2022/09/29 09:35:31;;;;;;;4.50;3.52;;;;;;;13.21;100.00;97610.61;2125668;81;21592;-84
2022/09/29 09:38:32;;;;;;;3.95;3.65;;;;;;;13.27;100.00;97609.73;2136200;83;20998;-84
2022/09/29 09:41:33;;;;;;;4.78;3.72;;;;;;;13.40;100.00;97616.63;2133418;83;21548;-84
2022/09/29 09:44:34;;;;;;;4.62;4.22;;;;;;;13.46;100.00;97616.25;2128787;82;21061;-85
2022/09/29 09:47:34;;;;;;;4.92;4.45;;;;;;;13.62;100.00;97628.73;2125198;81;21042;-85
2022/09/29 09:50:36;;;;;;;4.83;4.30;;;;;;;13.74;100.00;97622.20;2130512;82;21085;-85
2022/09/29 09:53:37;;;;;;;3.98;3.67;;;;;;;13.78;100.00;97620.20;2136893;83;21139;-85
2022/09/29 09:56:37;;;;;;;4.50;4.10;;;;;;;13.76;100.00;97630.67;2121086;82;21025;-85
2022/09/29 09:59:38;;;;;;;4.45;4.05;;;;;;;13.80;100.00;97631.80;2125255;82;21033;-85
2022/09/29 10:02:38;;;;;;;4.25;3.85;;;;;;;13.73;100.00;97614.83;2121190;83;21404;-85
2022/09/29 10:05:39;;;;;;;4.03;3.62;;;;;;;13.78;100.00;97615.45;2132709;83;21140;-85
2022/09/29 10:08:41;;;;;;;4.72;4.33;;;;;;;13.68;100.00;97624.42;2125179;82;21084;-86
2022/09/29 10:11:45;;;;;;;4.40;4.10;;;;;;;13.62;100.00;97615.58;2132319;82;21033;-85
2022/09/29 10:14:45;;;;;;;5.67;4.72;;;;;;;13.65;100.00;97626.99;2127322;82;21601;-85
2022/09/29 10:17:46;;;;;;;5.03;4.58;;;;;;;13.72;100.00;97629.53;2120085;82;21006;-85
2022/09/29 10:20:47;;;;;;;4.65;4.08;;;;;;;13.72;100.00;97629.02;2125237;83;21040;-85
2022/09/29 10:23:47;;;;;;;5.25;3.60;;;;;;;13.70;100.00;97626.30;2125759;82;21552;-85
2022/09/29 10:26:48;;;;;;;3.52;3.33;;;;;;;13.74;100.00;97630.90;2128910;83;21052;-85
2022/09/29 10:29:49;;;;;;;3.90;3.60;;;;;;;13.82;100.00;97633.72;2119654;82;21024;-85
2022/09/29 10:32:50;;;;;;;4.22;3.92;;;;;;;13.78;100.00;97629.41;2124148;81;21037;-85
2022/09/29 10:35:53;;;;;;;3.65;3.35;;;;;;;13.56;100.00;97639.66;2132984;83;21073;-84
2022/09/29 10:38:54;;;;;;;5.42;4.92;;;;;;;13.43;100.00;97637.20;2125118;82;21129;-84
2022/09/29 10:41:55;;;;;;;5.37;3.30;;;;;;;13.33;100.00;97636.42;2085503;83;21624;-84
2022/09/29 10:44:56;;;;;;;3.70;3.33;;;;;;;13.26;100.00;97637.05;2125702;83;21037;-84
2022/09/29 10:47:57;;;;;;;3.50;3.20;;;;;;;13.18;100.00;97636.01;2123159;82;21048;-85
2022/09/29 10:50:58;;;;;;;3.95;3.55;;;;;;;13.07;100.00;97645.45;2123828;81;21049;-84
2022/09/29 10:53:59;;;;;;;3.15;2.95;;;;;;;13.04;100.00;97643.23;2126600;82;21161;-84
2022/09/29 10:56:59;;;;;;;5.17;3.72;;;;;;;13.07;100.00;97649.39;2102486;84;21042;-84
2022/09/29 11:00:00;;;;;;;3.67;3.37;;;;;;;13.09;100.00;97645.22;2097264;83;21563;-85
2022/09/29 11:03:01;;;;;;;4.75;4.12;;;;;;;13.10;100.00;97641.05;2107697;83;21115;-85
2022/09/29 11:06:02;;;;;;;5.15;3.65;;;;;;;13.15;100.00;97640.38;2106062;83;21120;-85
2022/09/29 11:09:03;;;;;;;3.58;3.25;;;;;;;13.28;100.00;97642.08;2097810;84;21139;-86
2022/09/29 11:12:04;;;;;;;3.80;3.50;;;;;;;13.44;100.00;97643.26;2104284;84;21045;-85
2022/09/29 11:15:05;;;;;;;3.42;2.90;;;;;;;13.53;100.00;97647.17;2102581;83;21052;-85
2022/09/29 11:18:06;;;;;;;3.15;2.95;;;;;;;13.60;100.00;97644.75;2105763;83;21575;-85
2022/09/29 11:21:07;;;;;;;3.12;2.92;;;;;;;13.73;100.00;97645.59;2105430;83;21532;-85
2022/09/29 11:24:09;;;;;;;3.77;3.47;;;;;;;13.81;100.00;97643.96;2097040;83;21057;-85
2022/09/29 11:27:09;;;;;;;3.62;3.33;;;;;;;13.85;100.00;97641.95;2095268;83;21177;-86
2022/09/29 11:30:10;;;;;;;4.35;3.45;;;;;;;13.89;100.00;97646.23;2101012;83;21013;-86
2022/09/29 11:33:11;;;;;;;4.40;4.00;;;;;;;13.91;100.00;97654.22;2077194;83;21061;-86
2022/09/29 11:36:12;;;;;;;4.20;3.80;;;;;;;13.95;100.00;97655.88;2140107;82;21437;-86
2022/09/29 11:39:12;;;;;;;3.52;3.30;;;;;;;13.91;100.00;97656.84;2144321;82;21060;-86
2022/09/29 11:42:13;;;;;;;3.20;2.92;;;;;;;13.83;100.00;97654.54;2136882;82;21032;-86
2022/09/29 11:45:17;;;;;;;3.47;3.17;;;;;;;13.83;100.00;97648.48;2144663;82;20969;-86
2022/09/29 11:48:17;;;;;;;3.60;3.33;;;;;;;13.75;100.00;97644.85;2141695;82;22160;-84
2022/09/29 11:51:17;;;;;;;3.52;3.22;;;;;;;13.71;100.00;97643.69;2145350;82;21003;-84
2022/09/29 11:54:21;;;;;;;3.72;3.42;;;;;;;13.72;100.00;97643.48;2143697;82;21035;-84
2022/09/29 11:57:22;;;;;;;4.37;3.92;;;;;;;13.82;100.00;97644.25;2144960;82;21031;-84
2022/09/29 12:00:22;;;;;;;4.08;3.77;;;;;;;13.88;100.00;97643.33;2147709;83;20975;-83
2022/09/29 12:03:23;;;;;;;3.55;3.25;;;;;;;13.95;100.00;97647.46;2144722;83;21006;-83
2022/09/29 12:06:24;;;;;;;3.75;3.45;;;;;;;14.05;100.00;97650.05;2141861;82;21500;-84
2022/09/29 12:09:25;;;;;;;4.55;3.22;;;;;;;14.09;100.00;97647.27;2122745;83;21061;-84
2022/09/29 12:12:25;;;;;;;4.10;3.80;;;;;;;14.12;100.00;97643.66;2142274;82;21007;-86
2022/09/29 12:15:26;;;;;;;4.42;3.00;;;;;;;14.10;100.00;97647.03;2142037;82;21055;-89
2022/09/29 12:18:28;;;;;;;2.45;2.25;;;;;;;14.19;100.00;97645.67;2116935;83;21053;-84
2022/09/29 12:21:29;;;;;;;2.65;2.45;;;;;;;14.23;100.00;97656.02;2142477;82;21157;-84
2022/09/29 12:24:30;;;;;;;3.20;2.90;;;;;;;14.25;100.00;97650.52;2137438;82;21019;-83
2022/09/29 12:27:30;;;;;;;4.15;2.90;;;;;;;14.32;100.00;97653.84;2142352;82;21005;-84
2022/09/29 12:30:32;;;;;;;2.67;2.47;;;;;;;14.46;100.00;97654.46;2145355;83;21045;-83
2022/09/29 12:33:33;;;;;;;2.25;2.10;;;;;;;14.54;100.00;97652.80;2140926;82;21097;-84
2022/09/29 12:36:42;;;;;;;2.70;2.50;;;;;;;14.70;100.00;97652.59;2139707;82;21028;-83
2022/09/29 12:39:43;;;;;;;2.65;2.25;;;;;;;14.84;100.00;97661.06;2141449;82;21101;-83
2022/09/29 12:42:44;;;;;;;2.22;2.12;;;;;;;14.91;100.00;97649.36;2136883;82;21036;-86
2022/09/29 12:45:47;;;;;;;2.58;2.37;;;;;;;14.84;100.00;97663.17;2136846;82;21040;-87
2022/09/29 12:48:47;;;;;;;1.90;1.80;;;;;;;14.68;100.00;97663.36;2124209;82;21094;-90
2022/09/29 12:51:48;;;;;;;2.10;1.92;;;;;;;14.58;100.00;97662.34;2102523;83;21057;-85
2022/09/29 12:54:49;;;;;;;2.50;1.60;;;;;;;14.40;100.00;97655.34;2097483;83;21076;-87
2022/09/29 12:57:50;;;;;;;1.75;1.65;;;;;;;14.27;100.00;97659.02;2125280;83;21013;-89
2022/09/29 13:00:51;;;;;;;2.05;1.95;;;;;;;14.22;100.00;97665.46;2123820;83;21065;-86
2022/09/29 13:03:52;;;;;;;2.33;2.05;;;;;;;14.31;100.00;97661.98;2091658;83;21582;-89
2022/09/29 13:06:53;;;;;;;2.70;2.50;;;;;;;14.23;100.00;97665.23;2120096;82;21045;-93
2022/09/29 13:09:55;;;;;;;2.10;1.87;;;;;;;14.19;100.00;97667.24;2118504;82;21045;-83
2022/09/29 13:12:56;;;;;;;2.58;2.37;;;;;;;14.19;100.00;97668.56;2123906;83;20934;-86
2022/09/29 13:15:57;;;;;;;1.90;1.80;;;;;;;14.22;100.00;97677.31;2115033;83;21108;-86
2022/09/29 13:18:58;;;;;;;2.30;2.17;;;;;;;14.15;100.00;97678.72;2112866;83;21072;-83
2022/09/29 13:21:59;;;;;;;2.25;2.12;;;;;;;14.09;100.00;97679.65;2192574;81;21559;-86
2022/09/29 13:24:59;;;;;;;3.02;2.00;;;;;;;14.06;100.00;97677.97;2189078;80;21092;-85
2022/09/29 13:28:00;;;;;;;5.87;4.45;;;;;;;14.04;100.00;97680.03;2195687;81;21036;-89
2022/09/29 13:31:01;;;;;;;3.02;2.83;;;;;;;14.08;100.00;97680.69;2182964;81;21041;-88
2022/09/29 13:34:02;;;;;;;4.50;2.80;;;;;;;14.16;100.00;97683.47;2186590;81;21108;-82
2022/09/29 13:37:04;;;;;;;2.62;2.15;;;;;;;14.13;100.00;97681.30;2183198;81;22076;-87
2022/09/29 13:40:05;;;;;;;3.02;2.83;;;;;;;14.05;100.00;97682.43;2196824;81;21784;-86
2022/09/29 13:43:06;;;;;;;2.83;2.60;;;;;;;14.04;100.00;97673.45;2192581;80;21182;-86
2022/09/29 13:46:06;;;;;;;3.22;2.90;;;;;;;13.96;100.00;97683.78;2183644;80;21013;-87
2022/09/29 13:49:07;;;;;;;3.17;2.47;;;;;;;13.91;100.00;97675.78;2210374;80;21072;-86
2022/09/29 13:52:08;;;;;;;3.47;2.58;;;;;;;13.91;100.00;97677.90;2207517;80;21010;-86
2022/09/29 13:55:09;;;;;;;2.67;2.47;;;;;;;13.91;100.00;97684.48;2181238;81;21147;-85
2022/09/29 13:58:10;;;;;;;5.70;5.05;;;;;;;13.92;100.00;97683.45;2175120;81;21465;-87
2022/09/29 14:01:11;;;;;;;5.53;4.92;;;;;;;13.92;100.00;97691.86;2189348;81;21380;-84
2022/09/29 14:04:12;;;;;;;4.92;4.42;;;;;;;13.90;100.00;97696.55;2185476;81;21093;-85